sensor_id;sensor_type;location;lat;lon;timestamp;temperature;humidity
8340;DHT22;4207;49.314;7.162;2023-01-13T00:01:12;8.20;99.90
8340;DHT22;4207;49.314;7.162;2023-01-13T00:03:41;8.10;99.90
8340;DHT22;4207;49.314;7.162;2023-01-13T00:06:12;8.20;99.90
8340;DHT22;4207;49.314;7.162;2023-01-13T00:08:41;8.20;99.90
8340;DHT22;4207;49.314;7.162;2023-01-13T00:11:10;8.20;99.90
8340;DHT22;4207;49.314;7.162;2023-01-13T00:13:39;8.20;99.90
8340;DHT22;4207;49.314;7.162;2023-01-13T00:16:10;8.20;99.90
8340;DHT22;4207;49.314;7.162;2023-01-13T00:18:38;8.20;99.90
8340;DHT22;4207;49.314;7.162;2023-01-13T00:21:11;8.20;99.90
8340;DHT22;4207;49.314;7.162;2023-01-13T00:23:40;8.10;99.90
8340;DHT22;4207;49.314;7.162;2023-01-13T00:26:11;8.20;99.90
8340;DHT22;4207;49.314;7.162;2023-01-13T00:28:40;8.20;99.90
8340;DHT22;4207;49.314;7.162;2023-01-13T00:31:10;8.20;99.90
8340;DHT22;4207;49.314;7.162;2023-01-13T00:33:40;8.20;99.90
8340;DHT22;4207;49.314;7.162;2023-01-13T00:36:12;8.20;99.90
8340;DHT22;4207;49.314;7.162;2023-01-13T00:38:43;8.20;99.90
8340;DHT22;4207;49.314;7.162;2023-01-13T00:41:12;8.10;99.90
8340;DHT22;4207;49.314;7.162;2023-01-13T00:43:42;8.20;99.90
8340;DHT22;4207;49.314;7.162;2023-01-13T00:46:11;8.20;99.90
8340;DHT22;4207;49.314;7.162;2023-01-13T00:48:39;8.20;99.90
8340;DHT22;4207;49.314;7.162;2023-01-13T00:51:10;8.20;99.90
8340;DHT22;4207;49.314;7.162;2023-01-13T00:53:43;8.20;99.90
8340;DHT22;4207;49.314;7.162;2023-01-13T00:56:12;8.20;99.90
8340;DHT22;4207;49.314;7.162;2023-01-13T00:58:44;8.20;99.90
8340;DHT22;4207;49.314;7.162;2023-01-13T01:01:16;8.20;99.90
8340;DHT22;4207;49.314;7.162;2023-01-13T01:03:46;8.20;99.90
8340;DHT22;4207;49.314;7.162;2023-01-13T01:06:15;8.30;99.90
8340;DHT22;4207;49.314;7.162;2023-01-13T01:08:44;8.40;99.90
8340;DHT22;4207;49.314;7.162;2023-01-13T01:11:15;8.20;99.90
8340;DHT22;4207;49.314;7.162;2023-01-13T01:13:44;8.10;99.90
8340;DHT22;4207;49.314;7.162;2023-01-13T01:16:15;8.10;99.90
8340;DHT22;4207;49.314;7.162;2023-01-13T01:18:45;8.10;99.90
8340;DHT22;4207;49.314;7.162;2023-01-13T01:21:14;8.20;99.90
8340;DHT22;4207;49.314;7.162;2023-01-13T01:23:43;8.10;99.90
8340;DHT22;4207;49.314;7.162;2023-01-13T01:26:13;8.20;99.90
8340;DHT22;4207;49.314;7.162;2023-01-13T01:28:44;8.10;99.90
8340;DHT22;4207;49.314;7.162;2023-01-13T01:31:14;8.10;99.90
8340;DHT22;4207;49.314;7.162;2023-01-13T01:33:43;8.10;99.90
8340;DHT22;4207;49.314;7.162;2023-01-13T01:36:14;8.20;99.90
8340;DHT22;4207;49.314;7.162;2023-01-13T01:38:43;8.10;99.90
8340;DHT22;4207;49.314;7.162;2023-01-13T01:41:13;8.10;99.90
8340;DHT22;4207;49.314;7.162;2023-01-13T01:43:52;8.20;99.90
8340;DHT22;4207;49.314;7.162;2023-01-13T01:46:28;8.20;99.90
8340;DHT22;4207;49.314;7.162;2023-01-13T01:49:00;8.10;99.90
8340;DHT22;4207;49.314;7.162;2023-01-13T01:51:33;8.20;99.90
8340;DHT22;4207;49.314;7.162;2023-01-13T01:54:07;8.20;99.90
8340;DHT22;4207;49.314;7.162;2023-01-13T01:56:38;8.20;99.90
8340;DHT22;4207;49.314;7.162;2023-01-13T01:59:10;8.20;99.90
8340;DHT22;4207;49.314;7.162;2023-01-13T02:01:39;8.20;99.90
8340;DHT22;4207;49.314;7.162;2023-01-13T02:04:11;8.20;99.90
8340;DHT22;4207;49.314;7.162;2023-01-13T02:06:41;8.20;99.90
8340;DHT22;4207;49.314;7.162;2023-01-13T02:09:10;8.20;99.90
8340;DHT22;4207;49.314;7.162;2023-01-13T02:11:38;8.30;99.90
8340;DHT22;4207;49.314;7.162;2023-01-13T02:14:27;8.20;99.90
8340;DHT22;4207;49.314;7.162;2023-01-13T02:17:14;8.20;99.90
8340;DHT22;4207;49.314;7.162;2023-01-13T02:23:17;8.20;99.90
8340;DHT22;4207;49.314;7.162;2023-01-13T02:26:29;8.20;99.90
8340;DHT22;4207;49.314;7.162;2023-01-13T02:29:09;8.20;99.90
8340;DHT22;4207;49.314;7.162;2023-01-13T02:32:01;8.20;99.90
8340;DHT22;4207;49.314;7.162;2023-01-13T02:34:36;8.20;99.90
8340;DHT22;4207;49.314;7.162;2023-01-13T02:37:07;8.40;99.90
8340;DHT22;4207;49.314;7.162;2023-01-13T02:39:47;8.20;99.90
8340;DHT22;4207;49.314;7.162;2023-01-13T02:42:20;8.20;99.90
8340;DHT22;4207;49.314;7.162;2023-01-13T02:45:10;8.20;99.90
8340;DHT22;4207;49.314;7.162;2023-01-13T02:47:42;8.20;99.90
8340;DHT22;4207;49.314;7.162;2023-01-13T02:50:16;8.20;99.90
8340;DHT22;4207;49.314;7.162;2023-01-13T02:52:47;8.20;99.90
8340;DHT22;4207;49.314;7.162;2023-01-13T02:55:20;8.40;99.90
8340;DHT22;4207;49.314;7.162;2023-01-13T02:57:52;8.50;99.90
8340;DHT22;4207;49.314;7.162;2023-01-13T03:00:22;8.20;99.90
8340;DHT22;4207;49.314;7.162;2023-01-13T03:02:52;8.20;99.90
8340;DHT22;4207;49.314;7.162;2023-01-13T03:05:20;8.10;99.90
8340;DHT22;4207;49.314;7.162;2023-01-13T03:07:59;8.10;99.90
8340;DHT22;4207;49.314;7.162;2023-01-13T03:10:36;8.20;99.90
8340;DHT22;4207;49.314;7.162;2023-01-13T03:13:16;8.20;99.90
8340;DHT22;4207;49.314;7.162;2023-01-13T03:15:50;8.20;99.90
8340;DHT22;4207;49.314;7.162;2023-01-13T03:18:30;8.20;99.90
8340;DHT22;4207;49.314;7.162;2023-01-13T03:21:05;8.60;99.90
8340;DHT22;4207;49.314;7.162;2023-01-13T03:23:38;8.20;99.90
8340;DHT22;4207;49.314;7.162;2023-01-13T03:26:15;8.20;99.90
8340;DHT22;4207;49.314;7.162;2023-01-13T03:28:50;8.20;99.90
8340;DHT22;4207;49.314;7.162;2023-01-13T03:31:29;8.20;99.90
8340;DHT22;4207;49.314;7.162;2023-01-13T03:34:03;8.20;99.90
8340;DHT22;4207;49.314;7.162;2023-01-13T03:36:33;8.20;99.90
8340;DHT22;4207;49.314;7.162;2023-01-13T03:39:06;8.20;99.90
8340;DHT22;4207;49.314;7.162;2023-01-13T03:41:39;8.20;99.90
8340;DHT22;4207;49.314;7.162;2023-01-13T03:44:12;8.20;99.90
8340;DHT22;4207;49.314;7.162;2023-01-13T03:46:56;9.00;99.90
8340;DHT22;4207;49.314;7.162;2023-01-13T03:49:33;8.30;99.90
8340;DHT22;4207;49.314;7.162;2023-01-13T03:52:08;8.20;99.90
8340;DHT22;4207;49.314;7.162;2023-01-13T03:54:43;8.20;99.90
8340;DHT22;4207;49.314;7.162;2023-01-13T03:57:14;8.40;99.90
8340;DHT22;4207;49.314;7.162;2023-01-13T03:59:47;8.20;99.90
8340;DHT22;4207;49.314;7.162;2023-01-13T04:02:22;8.20;99.90
8340;DHT22;4207;49.314;7.162;2023-01-13T04:04:56;8.20;99.90
8340;DHT22;4207;49.314;7.162;2023-01-13T04:07:33;8.20;99.90
8340;DHT22;4207;49.314;7.162;2023-01-13T04:10:07;8.20;99.90
8340;DHT22;4207;49.314;7.162;2023-01-13T04:12:39;8.20;99.90
8340;DHT22;4207;49.314;7.162;2023-01-13T04:15:32;8.40;99.90
8340;DHT22;4207;49.314;7.162;2023-01-13T04:18:12;8.20;99.90
8340;DHT22;4207;49.314;7.162;2023-01-13T04:20:42;8.20;99.90
8340;DHT22;4207;49.314;7.162;2023-01-13T04:23:11;8.40;99.90
8340;DHT22;4207;49.314;7.162;2023-01-13T04:25:40;8.10;99.90
8340;DHT22;4207;49.314;7.162;2023-01-13T04:28:10;8.20;99.90
8340;DHT22;4207;49.314;7.162;2023-01-13T04:30:38;8.20;99.90
8340;DHT22;4207;49.314;7.162;2023-01-13T04:33:07;8.20;99.90
8340;DHT22;4207;49.314;7.162;2023-01-13T04:35:36;8.20;99.90
8340;DHT22;4207;49.314;7.162;2023-01-13T04:38:07;8.10;99.90
8340;DHT22;4207;49.314;7.162;2023-01-13T04:40:36;8.20;99.90
8340;DHT22;4207;49.314;7.162;2023-01-13T04:43:04;8.20;99.90
8340;DHT22;4207;49.314;7.162;2023-01-13T04:45:33;8.20;99.90
8340;DHT22;4207;49.314;7.162;2023-01-13T04:48:04;8.20;99.90
8340;DHT22;4207;49.314;7.162;2023-01-13T04:50:33;8.20;99.90
8340;DHT22;4207;49.314;7.162;2023-01-13T04:53:02;8.20;99.90
8340;DHT22;4207;49.314;7.162;2023-01-13T04:55:31;9.00;99.90
8340;DHT22;4207;49.314;7.162;2023-01-13T04:58:02;8.20;99.90
8340;DHT22;4207;49.314;7.162;2023-01-13T05:00:30;8.20;99.90
8340;DHT22;4207;49.314;7.162;2023-01-13T05:03:00;8.20;99.90
8340;DHT22;4207;49.314;7.162;2023-01-13T05:05:29;8.30;99.90
8340;DHT22;4207;49.314;7.162;2023-01-13T05:07:57;8.20;99.90
8340;DHT22;4207;49.314;7.162;2023-01-13T05:10:26;8.30;99.90
8340;DHT22;4207;49.314;7.162;2023-01-13T05:12:56;8.30;99.90
8340;DHT22;4207;49.314;7.162;2023-01-13T05:15:42;8.10;99.90
8340;DHT22;4207;49.314;7.162;2023-01-13T05:18:28;8.10;99.90
8340;DHT22;4207;49.314;7.162;2023-01-13T05:20:58;8.10;99.90
8340;DHT22;4207;49.314;7.162;2023-01-13T05:23:27;8.10;99.90
8340;DHT22;4207;49.314;7.162;2023-01-13T05:26:13;8.10;99.90
8340;DHT22;4207;49.314;7.162;2023-01-13T05:28:42;8.10;99.90
8340;DHT22;4207;49.314;7.162;2023-01-13T05:31:10;8.00;99.90
8340;DHT22;4207;49.314;7.162;2023-01-13T05:33:40;8.00;99.90
8340;DHT22;4207;49.314;7.162;2023-01-13T05:36:09;7.90;99.90
8340;DHT22;4207;49.314;7.162;2023-01-13T05:38:37;7.80;99.90
8340;DHT22;4207;49.314;7.162;2023-01-13T05:41:05;7.70;99.90
8340;DHT22;4207;49.314;7.162;2023-01-13T05:43:52;7.60;99.90
8340;DHT22;4207;49.314;7.162;2023-01-13T05:46:20;7.60;99.90
8340;DHT22;4207;49.314;7.162;2023-01-13T05:48:49;7.50;99.90
8340;DHT22;4207;49.314;7.162;2023-01-13T05:51:17;7.50;99.90
8340;DHT22;4207;49.314;7.162;2023-01-13T05:53:48;7.50;99.90
8340;DHT22;4207;49.314;7.162;2023-01-13T05:56:16;7.40;99.90
8340;DHT22;4207;49.314;7.162;2023-01-13T05:58:44;7.40;99.90
8340;DHT22;4207;49.314;7.162;2023-01-13T06:01:13;7.50;99.90
8340;DHT22;4207;49.314;7.162;2023-01-13T06:03:41;7.30;99.90
8340;DHT22;4207;49.314;7.162;2023-01-13T06:06:09;7.30;99.90
8340;DHT22;4207;49.314;7.162;2023-01-13T06:08:38;7.20;99.90
8340;DHT22;4207;49.314;7.162;2023-01-13T06:11:06;7.20;99.90
8340;DHT22;4207;49.314;7.162;2023-01-13T06:13:34;7.20;99.90
8340;DHT22;4207;49.314;7.162;2023-01-13T06:16:03;7.20;99.90
8340;DHT22;4207;49.314;7.162;2023-01-13T06:18:34;7.20;99.90
8340;DHT22;4207;49.314;7.162;2023-01-13T06:21:02;7.20;99.90
8340;DHT22;4207;49.314;7.162;2023-01-13T06:23:30;7.20;99.90
8340;DHT22;4207;49.314;7.162;2023-01-13T06:26:04;7.30;99.90
8340;DHT22;4207;49.314;7.162;2023-01-13T06:28:34;7.20;99.90
8340;DHT22;4207;49.314;7.162;2023-01-13T06:31:05;7.20;99.90
8340;DHT22;4207;49.314;7.162;2023-01-13T06:33:36;7.20;99.90
8340;DHT22;4207;49.314;7.162;2023-01-13T06:36:10;7.30;99.90
8340;DHT22;4207;49.314;7.162;2023-01-13T06:38:41;7.60;99.90
8340;DHT22;4207;49.314;7.162;2023-01-13T06:41:10;7.40;99.90
8340;DHT22;4207;49.314;7.162;2023-01-13T06:43:39;7.40;99.90
8340;DHT22;4207;49.314;7.162;2023-01-13T06:46:06;7.70;99.90
8340;DHT22;4207;49.314;7.162;2023-01-13T06:48:35;7.40;99.90
8340;DHT22;4207;49.314;7.162;2023-01-13T06:51:04;7.40;99.90
8340;DHT22;4207;49.314;7.162;2023-01-13T06:53:32;7.30;99.90
8340;DHT22;4207;49.314;7.162;2023-01-13T06:56:00;7.30;99.90
8340;DHT22;4207;49.314;7.162;2023-01-13T06:58:29;7.30;99.90
8340;DHT22;4207;49.314;7.162;2023-01-13T07:00:59;7.40;99.90
8340;DHT22;4207;49.314;7.162;2023-01-13T07:03:27;7.90;99.90
8340;DHT22;4207;49.314;7.162;2023-01-13T07:05:56;7.40;99.90
8340;DHT22;4207;49.314;7.162;2023-01-13T07:08:25;7.40;99.90
8340;DHT22;4207;49.314;7.162;2023-01-13T07:10:53;7.40;99.90
8340;DHT22;4207;49.314;7.162;2023-01-13T07:13:22;7.40;99.90
8340;DHT22;4207;49.314;7.162;2023-01-13T07:16:08;7.40;99.90
8340;DHT22;4207;49.314;7.162;2023-01-13T07:18:36;7.50;99.90
8340;DHT22;4207;49.314;7.162;2023-01-13T07:21:07;7.50;99.90
8340;DHT22;4207;49.314;7.162;2023-01-13T07:23:37;7.50;99.90
8340;DHT22;4207;49.314;7.162;2023-01-13T07:26:06;7.50;99.90
8340;DHT22;4207;49.314;7.162;2023-01-13T07:28:35;7.50;99.90
8340;DHT22;4207;49.314;7.162;2023-01-13T07:31:04;7.50;99.90
8340;DHT22;4207;49.314;7.162;2023-01-13T07:33:32;7.50;99.90
8340;DHT22;4207;49.314;7.162;2023-01-13T07:36:02;7.50;99.90
8340;DHT22;4207;49.314;7.162;2023-01-13T07:38:33;7.50;99.90
8340;DHT22;4207;49.314;7.162;2023-01-13T07:41:01;7.50;99.90
8340;DHT22;4207;49.314;7.162;2023-01-13T07:43:50;7.50;99.90
8340;DHT22;4207;49.314;7.162;2023-01-13T07:46:18;7.50;99.90
8340;DHT22;4207;49.314;7.162;2023-01-13T07:48:46;7.50;99.90
8340;DHT22;4207;49.314;7.162;2023-01-13T07:51:15;8.20;99.90
8340;DHT22;4207;49.314;7.162;2023-01-13T07:53:44;7.50;99.90
8340;DHT22;4207;49.314;7.162;2023-01-13T07:56:13;7.80;99.90
8340;DHT22;4207;49.314;7.162;2023-01-13T07:58:41;7.60;99.90
8340;DHT22;4207;49.314;7.162;2023-01-13T08:01:11;7.50;99.90
8340;DHT22;4207;49.314;7.162;2023-01-13T08:03:43;7.60;99.90
8340;DHT22;4207;49.314;7.162;2023-01-13T08:06:11;7.60;99.90
8340;DHT22;4207;49.314;7.162;2023-01-13T08:08:39;7.60;99.90
8340;DHT22;4207;49.314;7.162;2023-01-13T08:11:08;7.60;99.90
8340;DHT22;4207;49.314;7.162;2023-01-13T08:13:36;7.60;99.90
8340;DHT22;4207;49.314;7.162;2023-01-13T08:16:07;7.70;99.90
8340;DHT22;4207;49.314;7.162;2023-01-13T08:18:36;7.70;99.90
8340;DHT22;4207;49.314;7.162;2023-01-13T08:21:07;7.80;99.90
8340;DHT22;4207;49.314;7.162;2023-01-13T08:23:35;7.80;99.90
8340;DHT22;4207;49.314;7.162;2023-01-13T08:26:05;7.80;99.90
8340;DHT22;4207;49.314;7.162;2023-01-13T08:28:36;7.80;99.90
8340;DHT22;4207;49.314;7.162;2023-01-13T08:31:07;7.80;99.90
8340;DHT22;4207;49.314;7.162;2023-01-13T08:33:37;7.80;99.90
8340;DHT22;4207;49.314;7.162;2023-01-13T08:36:08;7.80;99.90
8340;DHT22;4207;49.314;7.162;2023-01-13T08:38:39;7.70;99.90
8340;DHT22;4207;49.314;7.162;2023-01-13T08:41:09;7.60;99.90
8340;DHT22;4207;49.314;7.162;2023-01-13T08:43:39;7.50;99.90
8340;DHT22;4207;49.314;7.162;2023-01-13T08:46:07;7.50;99.90
8340;DHT22;4207;49.314;7.162;2023-01-13T08:48:35;8.00;99.90
8340;DHT22;4207;49.314;7.162;2023-01-13T08:51:04;7.40;99.90
8340;DHT22;4207;49.314;7.162;2023-01-13T08:53:33;7.40;99.90
8340;DHT22;4207;49.314;7.162;2023-01-13T08:56:02;7.70;99.90
8340;DHT22;4207;49.314;7.162;2023-01-13T08:58:33;7.60;99.90
8340;DHT22;4207;49.314;7.162;2023-01-13T09:01:05;7.70;99.90
8340;DHT22;4207;49.314;7.162;2023-01-13T09:03:34;8.00;99.90
8340;DHT22;4207;49.314;7.162;2023-01-13T09:06:03;7.80;99.90
8340;DHT22;4207;49.314;7.162;2023-01-13T09:08:31;7.90;99.90
8340;DHT22;4207;49.314;7.162;2023-01-13T09:10:59;7.80;99.90
8340;DHT22;4207;49.314;7.162;2023-01-13T09:13:49;7.90;99.90
8340;DHT22;4207;49.314;7.162;2023-01-13T09:16:17;7.90;99.90
8340;DHT22;4207;49.314;7.162;2023-01-13T09:18:46;7.90;99.90
8340;DHT22;4207;49.314;7.162;2023-01-13T09:21:14;7.90;99.90
8340;DHT22;4207;49.314;7.162;2023-01-13T09:23:46;8.00;99.90
8340;DHT22;4207;49.314;7.162;2023-01-13T09:26:16;8.00;99.90
8340;DHT22;4207;49.314;7.162;2023-01-13T09:28:46;8.00;99.90
8340;DHT22;4207;49.314;7.162;2023-01-13T09:31:18;8.00;99.90
8340;DHT22;4207;49.314;7.162;2023-01-13T09:33:46;8.10;99.90
8340;DHT22;4207;49.314;7.162;2023-01-13T09:36:31;8.80;99.90
8340;DHT22;4207;49.314;7.162;2023-01-13T09:38:59;8.20;99.90
8340;DHT22;4207;49.314;7.162;2023-01-13T09:41:30;8.20;99.90
8340;DHT22;4207;49.314;7.162;2023-01-13T09:44:21;8.20;99.90
8340;DHT22;4207;49.314;7.162;2023-01-13T09:46:55;8.20;99.90
8340;DHT22;4207;49.314;7.162;2023-01-13T09:49:34;8.40;99.90
8340;DHT22;4207;49.314;7.162;2023-01-13T09:52:08;8.30;99.90
8340;DHT22;4207;49.314;7.162;2023-01-13T09:54:41;8.50;99.90
8340;DHT22;4207;49.314;7.162;2023-01-13T09:57:13;8.50;99.90
8340;DHT22;4207;49.314;7.162;2023-01-13T09:59:42;8.50;99.90
8340;DHT22;4207;49.314;7.162;2023-01-13T10:02:22;8.60;99.90
8340;DHT22;4207;49.314;7.162;2023-01-13T10:05:13;8.50;99.90
8340;DHT22;4207;49.314;7.162;2023-01-13T10:07:46;8.50;99.90
8340;DHT22;4207;49.314;7.162;2023-01-13T10:10:21;8.50;99.90
8340;DHT22;4207;49.314;7.162;2023-01-13T10:12:53;8.50;99.90
8340;DHT22;4207;49.314;7.162;2023-01-13T10:15:43;8.50;99.90
8340;DHT22;4207;49.314;7.162;2023-01-13T10:18:21;8.50;99.90
8340;DHT22;4207;49.314;7.162;2023-01-13T10:20:58;8.50;99.90
8340;DHT22;4207;49.314;7.162;2023-01-13T10:23:51;8.60;99.90
8340;DHT22;4207;49.314;7.162;2023-01-13T10:26:37;8.60;99.90
8340;DHT22;4207;49.314;7.162;2023-01-13T10:29:19;8.50;99.90
8340;DHT22;4207;49.314;7.162;2023-01-13T10:31:47;8.60;99.90
8340;DHT22;4207;49.314;7.162;2023-01-13T10:34:17;8.50;99.90
8340;DHT22;4207;49.314;7.162;2023-01-13T10:36:54;8.50;99.90
8340;DHT22;4207;49.314;7.162;2023-01-13T10:39:26;8.70;99.90
8340;DHT22;4207;49.314;7.162;2023-01-13T10:42:02;8.70;99.90
8340;DHT22;4207;49.314;7.162;2023-01-13T10:44:30;8.90;99.90
8340;DHT22;4207;49.314;7.162;2023-01-13T10:46:58;8.90;99.90
8340;DHT22;4207;49.314;7.162;2023-01-13T10:49:31;8.90;99.90
8340;DHT22;4207;49.314;7.162;2023-01-13T10:52:02;8.90;99.90
8340;DHT22;4207;49.314;7.162;2023-01-13T10:54:31;8.90;99.90
8340;DHT22;4207;49.314;7.162;2023-01-13T10:57:13;8.90;99.90
8340;DHT22;4207;49.314;7.162;2023-01-13T10:59:41;8.90;99.90
8340;DHT22;4207;49.314;7.162;2023-01-13T11:02:19;8.90;99.90
8340;DHT22;4207;49.314;7.162;2023-01-13T11:05:02;8.80;99.90
8340;DHT22;4207;49.314;7.162;2023-01-13T11:07:38;8.80;99.90
8340;DHT22;4207;49.314;7.162;2023-01-13T11:10:17;8.90;99.90
8340;DHT22;4207;49.314;7.162;2023-01-13T11:12:55;9.00;99.90
8340;DHT22;4207;49.314;7.162;2023-01-13T11:15:36;9.10;99.90
8340;DHT22;4207;49.314;7.162;2023-01-13T11:18:12;9.60;99.90
8340;DHT22;4207;49.314;7.162;2023-01-13T11:20:44;9.20;99.90
8340;DHT22;4207;49.314;7.162;2023-01-13T11:23:17;9.20;99.90
8340;DHT22;4207;49.314;7.162;2023-01-13T11:25:52;9.30;99.90
8340;DHT22;4207;49.314;7.162;2023-01-13T11:28:35;9.30;99.90
8340;DHT22;4207;49.314;7.162;2023-01-13T11:31:10;9.20;99.90
8340;DHT22;4207;49.314;7.162;2023-01-13T11:33:45;9.10;99.90
8340;DHT22;4207;49.314;7.162;2023-01-13T11:36:19;9.10;99.90
8340;DHT22;4207;49.314;7.162;2023-01-13T11:38:49;9.30;99.90
8340;DHT22;4207;49.314;7.162;2023-01-13T11:41:29;9.50;99.90
8340;DHT22;4207;49.314;7.162;2023-01-13T11:44:09;9.80;99.90
8340;DHT22;4207;49.314;7.162;2023-01-13T11:46:40;9.80;99.90
8340;DHT22;4207;49.314;7.162;2023-01-13T11:49:21;9.70;99.90
8340;DHT22;4207;49.314;7.162;2023-01-13T11:51:56;9.60;99.90
8340;DHT22;4207;49.314;7.162;2023-01-13T11:54:47;9.50;99.90
8340;DHT22;4207;49.314;7.162;2023-01-13T11:57:41;9.40;99.90
8340;DHT22;4207;49.314;7.162;2023-01-13T12:00:22;9.30;99.90
8340;DHT22;4207;49.314;7.162;2023-01-13T12:03:01;9.10;99.90
8340;DHT22;4207;49.314;7.162;2023-01-13T12:05:38;9.00;99.90
8340;DHT22;4207;49.314;7.162;2023-01-13T12:08:16;8.90;99.90
8340;DHT22;4207;49.314;7.162;2023-01-13T12:11:00;8.90;99.90
8340;DHT22;4207;49.314;7.162;2023-01-13T12:13:38;8.90;99.90
8340;DHT22;4207;49.314;7.162;2023-01-13T12:16:14;8.80;99.90
8340;DHT22;4207;49.314;7.162;2023-01-13T12:19:15;8.70;99.90
8340;DHT22;4207;49.314;7.162;2023-01-13T12:21:56;8.60;99.90
8340;DHT22;4207;49.314;7.162;2023-01-13T12:24:35;8.80;99.90
8340;DHT22;4207;49.314;7.162;2023-01-13T12:27:09;9.00;99.90
8340;DHT22;4207;49.314;7.162;2023-01-13T12:29:39;9.10;99.90
8340;DHT22;4207;49.314;7.162;2023-01-13T12:32:11;9.40;99.90
8340;DHT22;4207;49.314;7.162;2023-01-13T12:34:49;9.80;99.90
8340;DHT22;4207;49.314;7.162;2023-01-13T12:37:25;9.70;99.90
8340;DHT22;4207;49.314;7.162;2023-01-13T12:40:11;9.90;99.90
8340;DHT22;4207;49.314;7.162;2023-01-13T12:42:46;10.00;99.90
8340;DHT22;4207;49.314;7.162;2023-01-13T12:45:33;10.50;99.90
8340;DHT22;4207;49.314;7.162;2023-01-13T12:48:01;9.90;99.90
8340;DHT22;4207;49.314;7.162;2023-01-13T12:50:40;9.80;99.90
8340;DHT22;4207;49.314;7.162;2023-01-13T12:53:30;9.60;99.90
8340;DHT22;4207;49.314;7.162;2023-01-13T12:56:24;9.30;99.90
8340;DHT22;4207;49.314;7.162;2023-01-13T12:59:31;9.10;99.90
8340;DHT22;4207;49.314;7.162;2023-01-13T13:02:25;8.90;99.90
8340;DHT22;4207;49.314;7.162;2023-01-13T13:04:56;8.70;99.90
8340;DHT22;4207;49.314;7.162;2023-01-13T13:07:31;8.50;99.90
8340;DHT22;4207;49.314;7.162;2023-01-13T13:10:14;8.50;99.90
8340;DHT22;4207;49.314;7.162;2023-01-13T13:12:55;8.20;99.90
8340;DHT22;4207;49.314;7.162;2023-01-13T13:15:42;8.10;99.90
8340;DHT22;4207;49.314;7.162;2023-01-13T13:18:27;8.00;99.90
8340;DHT22;4207;49.314;7.162;2023-01-13T13:21:09;8.00;99.90
8340;DHT22;4207;49.314;7.162;2023-01-13T13:23:44;7.90;99.90
8340;DHT22;4207;49.314;7.162;2023-01-13T13:26:29;7.90;99.90
8340;DHT22;4207;49.314;7.162;2023-01-13T13:35:26;8.10;99.90
8340;DHT22;4207;49.314;7.162;2023-01-13T13:38:09;8.30;99.90
8340;DHT22;4207;49.314;7.162;2023-01-13T13:40:56;8.50;99.90
8340;DHT22;4207;49.314;7.162;2023-01-13T13:43:44;8.60;99.90
8340;DHT22;4207;49.314;7.162;2023-01-13T13:46:32;8.80;99.90
8340;DHT22;4207;49.314;7.162;2023-01-13T13:49:18;9.00;99.90
8340;DHT22;4207;49.314;7.162;2023-01-13T13:51:55;9.00;99.90
8340;DHT22;4207;49.314;7.162;2023-01-13T13:54:25;9.00;99.90
8340;DHT22;4207;49.314;7.162;2023-01-13T13:56:54;8.80;99.90
8340;DHT22;4207;49.314;7.162;2023-01-13T13:59:23;8.90;99.90
8340;DHT22;4207;49.314;7.162;2023-01-13T14:01:54;8.80;99.90
8340;DHT22;4207;49.314;7.162;2023-01-13T14:04:30;8.70;99.90
8340;DHT22;4207;49.314;7.162;2023-01-13T14:07:02;8.70;99.90
8340;DHT22;4207;49.314;7.162;2023-01-13T14:09:40;8.60;99.90
8340;DHT22;4207;49.314;7.162;2023-01-13T14:12:16;8.60;99.90
8340;DHT22;4207;49.314;7.162;2023-01-13T14:14:45;8.60;99.90
8340;DHT22;4207;49.314;7.162;2023-01-13T14:17:23;8.80;99.90
8340;DHT22;4207;49.314;7.162;2023-01-13T14:19:57;8.90;99.90
8340;DHT22;4207;49.314;7.162;2023-01-13T14:22:26;8.80;99.90
8340;DHT22;4207;49.314;7.162;2023-01-13T14:24:55;8.70;99.90
8340;DHT22;4207;49.314;7.162;2023-01-13T14:27:27;8.70;99.90
8340;DHT22;4207;49.314;7.162;2023-01-13T14:29:57;8.60;99.90
8340;DHT22;4207;49.314;7.162;2023-01-13T14:32:31;8.50;99.90
8340;DHT22;4207;49.314;7.162;2023-01-13T14:35:01;8.50;99.90
8340;DHT22;4207;49.314;7.162;2023-01-13T14:37:36;8.40;99.90
8340;DHT22;4207;49.314;7.162;2023-01-13T14:42:56;8.40;99.90
8340;DHT22;4207;49.314;7.162;2023-01-13T14:45:26;8.50;99.90
8340;DHT22;4207;49.314;7.162;2023-01-13T14:47:57;8.50;99.90
8340;DHT22;4207;49.314;7.162;2023-01-13T14:50:29;8.60;99.90
8340;DHT22;4207;49.314;7.162;2023-01-13T14:53:00;8.60;99.90
8340;DHT22;4207;49.314;7.162;2023-01-13T14:55:29;8.70;99.90
8340;DHT22;4207;49.314;7.162;2023-01-13T14:58:22;8.60;99.90
8340;DHT22;4207;49.314;7.162;2023-01-13T15:00:52;8.70;99.90
8340;DHT22;4207;49.314;7.162;2023-01-13T15:03:40;8.50;99.90
8340;DHT22;4207;49.314;7.162;2023-01-13T15:06:23;8.70;99.90
8340;DHT22;4207;49.314;7.162;2023-01-13T15:08:52;8.60;99.90
8340;DHT22;4207;49.314;7.162;2023-01-13T15:11:23;8.90;99.90
8340;DHT22;4207;49.314;7.162;2023-01-13T15:13:56;8.50;99.90
8340;DHT22;4207;49.314;7.162;2023-01-13T15:16:27;8.50;99.90
8340;DHT22;4207;49.314;7.162;2023-01-13T15:19:00;8.70;99.90
8340;DHT22;4207;49.314;7.162;2023-01-13T15:21:30;8.60;99.90
8340;DHT22;4207;49.314;7.162;2023-01-13T15:23:58;8.60;99.90
8340;DHT22;4207;49.314;7.162;2023-01-13T15:26:28;9.20;99.90
8340;DHT22;4207;49.314;7.162;2023-01-13T15:28:57;8.50;99.90
8340;DHT22;4207;49.314;7.162;2023-01-13T15:31:27;8.40;99.90
8340;DHT22;4207;49.314;7.162;2023-01-13T15:33:55;8.30;99.90
8340;DHT22;4207;49.314;7.162;2023-01-13T15:36:26;8.10;99.90
8340;DHT22;4207;49.314;7.162;2023-01-13T15:38:57;7.90;99.90
8340;DHT22;4207;49.314;7.162;2023-01-13T15:41:26;7.70;99.90
8340;DHT22;4207;49.314;7.162;2023-01-13T15:44:13;7.40;99.90
8340;DHT22;4207;49.314;7.162;2023-01-13T15:47:02;7.30;99.90
8340;DHT22;4207;49.314;7.162;2023-01-13T15:49:35;7.10;99.90
8340;DHT22;4207;49.314;7.162;2023-01-13T15:52:18;7.30;99.90
8340;DHT22;4207;49.314;7.162;2023-01-13T15:54:49;6.90;99.90
8340;DHT22;4207;49.314;7.162;2023-01-13T15:57:20;6.80;99.90
8340;DHT22;4207;49.314;7.162;2023-01-13T15:59:55;7.00;99.90
8340;DHT22;4207;49.314;7.162;2023-01-13T16:02:24;6.70;99.90
8340;DHT22;4207;49.314;7.162;2023-01-13T16:04:52;6.60;99.90
8340;DHT22;4207;49.314;7.162;2023-01-13T16:07:22;7.00;99.90
8340;DHT22;4207;49.314;7.162;2023-01-13T16:09:52;7.20;99.90
8340;DHT22;4207;49.314;7.162;2023-01-13T16:12:20;6.50;99.90
8340;DHT22;4207;49.314;7.162;2023-01-13T16:14:48;6.50;99.90
8340;DHT22;4207;49.314;7.162;2023-01-13T16:17:18;6.50;99.90
8340;DHT22;4207;49.314;7.162;2023-01-13T16:19:46;6.50;99.90
8340;DHT22;4207;49.314;7.162;2023-01-13T16:22:15;6.50;99.90
8340;DHT22;4207;49.314;7.162;2023-01-13T16:24:43;6.50;99.90
8340;DHT22;4207;49.314;7.162;2023-01-13T16:27:15;6.50;99.90
8340;DHT22;4207;49.314;7.162;2023-01-13T16:29:44;6.40;99.90
8340;DHT22;4207;49.314;7.162;2023-01-13T16:32:13;6.40;99.90
8340;DHT22;4207;49.314;7.162;2023-01-13T16:34:41;6.40;99.90
8340;DHT22;4207;49.314;7.162;2023-01-13T16:37:18;6.30;99.90
8340;DHT22;4207;49.314;7.162;2023-01-13T16:39:46;6.30;99.90
8340;DHT22;4207;49.314;7.162;2023-01-13T16:42:16;6.30;99.90
8340;DHT22;4207;49.314;7.162;2023-01-13T16:44:44;6.30;99.90
8340;DHT22;4207;49.314;7.162;2023-01-13T16:47:15;6.30;99.90
8340;DHT22;4207;49.314;7.162;2023-01-13T16:49:44;6.40;99.90
8340;DHT22;4207;49.314;7.162;2023-01-13T16:52:12;6.50;99.90
8340;DHT22;4207;49.314;7.162;2023-01-13T16:54:40;6.60;99.90
8340;DHT22;4207;49.314;7.162;2023-01-13T16:57:11;6.70;99.90
8340;DHT22;4207;49.314;7.162;2023-01-13T16:59:41;6.80;99.90
8340;DHT22;4207;49.314;7.162;2023-01-13T17:02:11;6.90;99.90
8340;DHT22;4207;49.314;7.162;2023-01-13T17:04:40;7.00;99.90
8340;DHT22;4207;49.314;7.162;2023-01-13T17:07:11;7.10;99.90
8340;DHT22;4207;49.314;7.162;2023-01-13T17:09:41;7.10;99.90